Data for 04/11/2009

Time Sea-Level Adjusted Pressure Absolute Pressure Temperature Relative Humidity Dew Point   
(mb) (inHg) (mb) (inHg) (C) (F) (%) (C) (F)
00:05 1012 29.88 841 24.83 6.5 43.7 61 -0.4 31.3
00:10 1012 29.88 841 24.83 5.9 42.5 63 -0.5 31
00:15 1012 29.88 841 24.83 5.4 41.7 66 -0.5 31
00:20 1012 29.88 841 24.83 4.9 40.9 67 -0.6 30.8
00:25 1012 29.88 841 24.83 4.9 40.8 67 -0.7 30.8
00:30 1012 29.88 841 24.83 4.5 40.1 69 -0.7 30.7
00:35 1012 29.88 841 24.83 4.5 40.1 68 -1 30.3
00:40 1012 29.88 841 24.83 4.7 40.4 68 -0.7 30.7
00:45 1012 29.88 841 24.83 4.8 40.7 68 -0.6 31
00:50 1012 29.88 841 24.83 4.7 40.5 70 -0.2 31.6
00:55 1012 29.88 841 24.83 4.8 40.7 67 -0.8 30.6
01:00 1012 29.88 841 24.83 4.9 40.9 67 -0.6 30.9
01:05 1011 29.85 841 24.83 4.6 40.2 70 -0.4 31.3
01:10 1011 29.85 841 24.83 4 39.2 71 -0.8 30.5
01:15 1011 29.85 841 24.83 4 39.2 70 -0.9 30.3
01:20 1011 29.85 841 24.83 3.9 39 71 -0.9 30.4
01:25 1011 29.85 841 24.83 3.6 38.5 72 -1 30.3
01:30 1011 29.85 841 24.83 3.7 38.7 69 -1.5 29.3
01:35 1011 29.85 841 24.83 3.9 39 69 -1.4 29.5
01:40 1011 29.85 841 24.83 4.2 39.6 68 -1.2 29.8
01:45 1011 29.85 841 24.83 3.7 38.6 71 -1.1 30
01:50 1011 29.85 841 24.83 3.3 37.9 71 -1.4 29.4
01:55 1011 29.85 841 24.83 3.7 38.7 68 -1.5 29.2
02:00 1011 29.85 840 24.81 4 39.1 70 -1 30.2
02:05 1011 29.85 840 24.81 3.8 38.9 69 -1.3 29.7
02:10 1011 29.85 840 24.81 3.4 38.1 69 -1.7 29
02:15 1011 29.85 841 24.83 3.8 38.9 67 -1.7 29
02:20 1011 29.85 841 24.83 3.9 39 68 -1.5 29.3
02:25 1011 29.85 841 24.83 3.5 38.4 69 -1.6 29.1
02:30 1011 29.85 841 24.83 3.4 38 70 -1.5 29.2
02:35 1011 29.85 840 24.81 3.1 37.7 70 -1.8 28.8
02:40 1011 29.85 840 24.81 3.3 38 69 -1.8 28.7
02:45 1011 29.85 840 24.81 3.6 38.4 68 -1.8 28.7
02:50 1011 29.85 840 24.81 3.9 38.9 65 -2.1 28.3
02:55 1011 29.85 840 24.81 4 39.2 66 -1.8 28.7
03:00 1011 29.85 840 24.81 4.1 39.4 65 -1.9 28.6
03:05 1011 29.85 840 24.81 3.8 38.8 67 -1.9 28.7
03:10 1011 29.85 840 24.81 3.5 38.2 68 -1.9 28.6
03:15 1011 29.85 840 24.81 3.4 38.1 67 -2.2 28
03:20 1011 29.85 840 24.81 3.7 38.7 66 -2.1 28.3
03:25 1011 29.85 840 24.81 3.8 38.8 66 -2 28.5
03:30 1011 29.85 840 24.81 3.8 38.8 65 -2.1 28.2
03:35 1011 29.85 840 24.81 3.8 38.9 65 -2.2 28.1
03:40 1011 29.85 840 24.81 3.7 38.7 65 -2.1 28.2
03:45 1011 29.85 840 24.81 3.8 38.9 65 -2.2 28.1
03:50 1011 29.85 840 24.81 3.9 39.1 64 -2.2 28
03:55 1011 29.85 840 24.81 4.1 39.3 64 -2.1 28.3
04:00 1011 29.85 840 24.81 3.8 38.9 67 -1.8 28.8
04:05 1011 29.85 840 24.81 3.1 37.5 70 -1.9 28.6
04:10 1011 29.85 840 24.81 3.1 37.6 65 -2.8 27
04:15 1011 29.85 840 24.81 3.5 38.2 68 -1.9 28.5
04:20 1011 29.85 840 24.81 2.8 37 69 -2.4 27.8
04:25 1011 29.85 840 24.81 2.7 36.8 69 -2.4 27.6
04:30 1011 29.85 840 24.81 2.4 36.4 70 -2.6 27.4
04:35 1011 29.85 840 24.81 2.4 36.3 70 -2.5 27.4
04:40 1011 29.85 841 24.83 2.2 36 70 -2.6 27.3
04:45 1011 29.85 840 24.81 2.5 36.6 69 -2.7 27.2
04:50 1011 29.85 840 24.81 2.7 36.9 68 -2.6 27.3
04:55 1011 29.85 840 24.81 2.3 36.2 73 -2.1 28.2
05:00 1011 29.85 840 24.81 1.7 35.1 73 -2.5 27.5
05:05 1011 29.85 840 24.81 2 35.6 72 -2.5 27.5
05:10 1011 29.85 840 24.81 2.3 36.1 72 -2.2 28
05:15 1011 29.85 841 24.83 1.9 35.5 74 -2.2 28
05:20 1011 29.85 841 24.83 2 35.6 72 -2.5 27.5
05:25 1011 29.85 841 24.83 2.2 36 71 -2.5 27.6
05:30 1011 29.85 841 24.83 2.4 36.3 70 -2.5 27.6
05:35 1011 29.85 841 24.83 2.9 37.1 67 -2.6 27.3
05:40 1011 29.85 841 24.83 3 37.4 67 -2.6 27.4
05:45 1011 29.85 841 24.83 3.1 37.5 67 -2.5 27.5
05:50 1011 29.85 841 24.83 2.6 36.8 69 -2.5 27.5
05:55 1011 29.85 841 24.83 2.5 36.5 69 -2.5 27.5
06:00 1011 29.85 841 24.83 2.7 36.9 68 -2.6 27.3
06:05 1012 29.88 841 24.83 2.9 37.2 68 -2.5 27.6
06:10 1011 29.85 841 24.83 2.6 36.7 70 -2.3 27.8
06:15 1011 29.85 841 24.83 2.3 36.2 71 -2.4 27.7
06:20 1011 29.85 841 24.83 2.4 36.4 71 -2.2 28
06:25 1011 29.85 841 24.83 2.3 36.1 73 -2.2 28.1
06:30 1011 29.85 841 24.83 2.2 36 73 -2.2 28
06:35 1012 29.88 841 24.83 2.1 35.9 72 -2.4 27.7
06:40 1012 29.88 841 24.83 2.1 35.8 72 -2.5 27.6
06:45 1012 29.88 841 24.83 2.2 36 71 -2.5 27.6
06:50 1012 29.88 841 24.83 2.3 36.1 71 -2.5 27.5
06:55 1012 29.88 841 24.83 2.3 36.2 71 -2.5 27.6
07:00 1012 29.88 841 24.83 2.4 36.3 71 -2.4 27.6
07:05 1012 29.88 841 24.83 2.4 36.3 70 -2.4 27.6
07:10 1012 29.88 841 24.83 2.3 36.2 71 -2.4 27.6
07:15 1012 29.88 841 24.83 2 35.6 71 -2.6 27.2
07:20 1012 29.88 841 24.83 2.5 36.4 69 -2.7 27.2
07:25 1012 29.88 841 24.83 3.2 37.8 67 -2.3 27.8
07:30 1012 29.88 841 24.83 3.2 37.8 67 -2.2 28
07:35 1012 29.88 841 24.83 3.2 37.7 68 -2.2 28
07:40 1012 29.88 841 24.83 3.1 37.5 68 -2.2 28
07:45 1012 29.88 841 24.83 2.9 37.3 68 -2.3 27.8
07:50 1012 29.88 841 24.83 2.9 37.2 68 -2.4 27.7
07:55 1012 29.88 841 24.83 3.3 38 67 -2.3 27.9
08:00 1012 29.88 841 24.83 3.9 38.9 66 -2 28.5
08:05 1012 29.88 841 24.83 4 39.2 65 -1.9 28.5
08:10 1012 29.88 841 24.83 4.3 39.7 64 -1.9 28.6
08:15 1012 29.88 841 24.83 4.6 40.3 63 -1.8 28.8
08:20 1012 29.88 841 24.83 4.8 40.6 64 -1.5 29.3
08:25 1012 29.88 841 24.83 5 41.1 62 -1.6 29.1
08:30 1012 29.88 841 24.83 5.6 42 61 -1.4 29.5
08:35 1012 29.88 841 24.83 6 42.7 59 -1.4 29.5
08:40 1012 29.88 841 24.83 6.7 44.1 55 -1.6 29.1
08:45 1012 29.88 841 24.83 7.1 44.7 56 -1 30.2
08:50 1012 29.88 842 24.86 6.8 44.3 56 -1.2 29.8
08:55 1012 29.88 842 24.86 7.1 44.8 57 -0.7 30.7
09:00 1012 29.88 842 24.86 6.5 43.7 57 -1.4 29.5
09:05 1013 29.91 842 24.86 6.9 44.4 53 -2.1 28.2
09:10 1013 29.91 842 24.86 7.8 46 51 -1.8 28.7
09:15 1013 29.91 842 24.86 8.1 46.6 49 -2 28.4
09:20 1012 29.88 842 24.86 7.8 46 51 -1.6 29.1
09:25 1012 29.88 842 24.86 7.6 45.7 50 -2.2 28
09:30 1012 29.88 842 24.86 8.4 47.1 50 -1.4 29.5
09:35 1012 29.88 842 24.86 8.3 46.9 51 -1.4 29.6
09:40 1012 29.88 842 24.86 8.7 47.7 49 -1.4 29.5
09:45 1013 29.91 842 24.86 8.8 47.9 48 -1.4 29.4
09:50 1013 29.91 842 24.86 9.5 49 48 -1 30.2
09:55 1013 29.91 842 24.86 10 50 46 -1 30.1
10:00 1013 29.91 842 24.86 9.6 49.3 48 -0.7 30.7
10:05 1013 29.91 842 24.86 9.7 49.5 48 -0.8 30.5
10:10 1013 29.91 842 24.86 10 50.1 49 -0.3 31.5
10:15 1013 29.91 842 24.86 10.1 50.2 48 -0.4 31.3
10:20 1013 29.91 842 24.86 10.4 50.8 47 -0.3 31.5
10:25 1013 29.91 842 24.86 10.6 51 48 -0.1 31.8
10:30 1013 29.91 842 24.86 10.1 50.1 49 -0.1 31.9
10:35 1013 29.91 842 24.86 10.5 50.8 47 -0.5 31.1
10:40 1013 29.91 842 24.86 10.6 51.2 47 -0.2 31.6
10:45 1012 29.88 842 24.86 10.4 50.6 48 -0.2 31.7
10:50 1012 29.88 842 24.86 10.5 51 43 -1.5 29.4
10:55 1012 29.88 842 24.86 11.6 52.8 45 -0 31.9
11:00 1012 29.88 842 24.86 11.4 52.6 43 -0.8 30.5
11:05 1012 29.88 841 24.83 12 53.6 42 -0.4 31.3
11:10 1012 29.88 841 24.83 11.4 52.5 44 -0.5 31.1
11:15 1012 29.88 841 24.83 12 53.5 39 -1.4 29.5
11:20 1012 29.88 841 24.83 12.5 54.6 41 -0.2 31.6
11:25 1012 29.88 841 24.83 11.6 52.8 41 -1.1 30
11:30 1012 29.88 841 24.83 11.8 53.3 40 -1.2 29.8
11:35 1012 29.88 841 24.83 11.9 53.3 40 -1.4 29.4
11:40 1012 29.88 841 24.83 12.8 55.1 38 -1 30.1
11:45 1012 29.88 841 24.83 13.3 56 38 -0.7 30.8
11:50 1012 29.88 841 24.83 12.8 55 39 -0.7 30.7
11:55 1012 29.88 841 24.83 12.7 54.8 40 -0.6 30.9
12:00 1012 29.88 841 24.83 12.9 55.1 38 -1 30.2
12:05 1012 29.88 841 24.83 13.3 56 36 -1.4 29.5
12:10 1012 29.88 841 24.83 13.9 57 37 -0.6 31
12:15 1012 29.88 841 24.83 14.3 57.7 35 -0.9 30.4
12:20 1012 29.88 841 24.83 14 57.2 36 -0.9 30.4
12:25 1012 29.88 841 24.83 14 57.3 35 -1 30.2
12:30 1012 29.88 841 24.83 14.3 57.7 35 -0.8 30.6
12:35 1012 29.88 841 24.83 14.8 58.6 36 -0.1 31.8
12:40 1012 29.88 841 24.83 15.2 59.4 34 -0.6 31
12:45 1012 29.88 841 24.83 14.7 58.4 34 -1 30.2
12:50 1012 29.88 841 24.83 14.7 58.4 35 -0.6 30.8
12:55 1012 29.88 841 24.83 15.1 59.1 34 -0.7 30.8
13:00 1012 29.88 841 24.83 15.1 59.2 32 -1.2 29.9
13:05 1012 29.88 841 24.83 15.4 59.7 33 -0.7 30.7
13:10 1012 29.88 841 24.83 15.1 59.2 33 -1.1 30.1
13:15 1012 29.88 841 24.83 15.3 59.5 32 -1.3 29.6
13:20 1012 29.88 841 24.83 15.8 60.4 32 -0.7 30.7
13:25 1012 29.88 841 24.83 13.9 57 36 -0.7 30.7
13:30 1012 29.88 841 24.83 14.3 57.7 35 -0.9 30.4
13:35 1012 29.88 841 24.83 14.4 57.9 34 -1 30.1
13:40 1012 29.88 841 24.83 15.4 59.7 33 -0.8 30.6
13:45 1012 29.88 841 24.83 14.9 58.8 34 -0.8 30.6
13:50 1012 29.88 841 24.83 15.6 60.1 32 -0.7 30.7
13:55 1012 29.88 841 24.83 15.7 60.3 33 -0.6 31
14:00 1012 29.88 841 24.83 15.6 60.1 32 -0.9 30.5
14:05 1012 29.88 841 24.83 15.3 59.5 34 -0.2 31.6
14:10 1012 29.88 841 24.83 14.3 57.8 36 -0.5 31.1
14:15 1012 29.88 841 24.83 14.1 57.3 39 0.4 32.8
14:20 1012 29.88 841 24.83 13.8 56.9 41 1 33.8
14:25 1012 29.88 841 24.83 13.2 55.8 42 0.7 33.2
14:30 1012 29.88 841 24.83 13.1 55.7 39 -0.6 31
14:35 1012 29.88 841 24.83 13.6 56.5 41 0.7 33.3
14:40 1012 29.88 841 24.83 13.1 55.6 43 0.8 33.5
14:45 1012 29.88 841 24.83 12.1 53.8 45 0.6 33
14:50 1012 29.88 841 24.83 12.3 54.2 45 0.7 33.2
14:55 1012 29.88 841 24.83 13.1 55.6 43 0.8 33.5
15:00 1012 29.88 841 24.83 13 55.3 41 0.1 32.2
15:05 1012 29.88 841 24.83 13 55.3 39 -0.5 31.1
15:10 1012 29.88 841 24.83 13.2 55.8 39 -0.4 31.3
15:15 1012 29.88 841 24.83 13 55.4 40 -0.3 31.5
15:20 1012 29.88 841 24.83 13.4 56.1 37 -0.8 30.6
15:25 1012 29.88 841 24.83 13.4 56.1 38 -0.6 30.8
15:30 1012 29.88 841 24.83 12.8 55 38 -1 30.2
15:35 1012 29.88 841 24.83 13 55.5 35 -2.1 28.3
15:40 1012 29.88 841 24.83 13.2 55.7 34 -2.2 28
15:45 1012 29.88 841 24.83 13 55.5 37 -1.1 30
15:50 1012 29.88 841 24.83 12.8 55 40 -0.4 31.3
15:55 1012 29.88 841 24.83 12.6 54.7 35 -2.5 27.6
16:00 1012 29.88 841 24.83 12.9 55.2 36 -1.8 28.7
16:05 1011 29.85 841 24.83 12.7 54.9 38 -1.3 29.7
16:10 1011 29.85 841 24.83 13.1 55.6 38 -0.7 30.8
16:15 1011 29.85 841 24.83 13.1 55.6 41 0.3 32.6
16:20 1011 29.85 841 24.83 12.4 54.3 47 1.3 34.4
16:25 1011 29.85 841 24.83 12.5 54.5 45 0.8 33.5
16:30 1011 29.85 841 24.83 12.7 54.8 43 0.4 32.7
16:35 1011 29.85 841 24.83 13.2 55.8 40 0 32
16:40 1011 29.85 841 24.83 13.5 56.2 40 0.3 32.5
16:45 1011 29.85 841 24.83 13.6 56.5 37 -0.6 31
16:50 1011 29.85 841 24.83 14.2 57.5 38 0.1 32.1
16:55 1011 29.85 841 24.83 13.8 56.8 37 -0.8 30.6
17:00 1011 29.85 841 24.83 14.1 57.3 37 -0.3 31.5
17:05 1011 29.85 841 24.83 14.7 58.4 36 -0.3 31.4
17:10 1011 29.85 841 24.83 14.2 57.5 41 1 33.9
17:15 1011 29.85 841 24.83 14.1 57.4 40 0.8 33.5
17:20 1012 29.88 841 24.83 14.3 57.8 39 0.5 33
17:25 1012 29.88 841 24.83 14.4 58 38 0.4 32.6
17:30 1012 29.88 841 24.83 13.6 56.5 40 0.3 32.5
17:35 1012 29.88 841 24.83 13.7 56.6 38 -0.3 31.4
17:40 1012 29.88 841 24.83 14.2 57.5 36 -0.6 31
17:45 1012 29.88 841 24.83 14.5 58 34 -1 30.2
17:50 1012 29.88 841 24.83 14.6 58.3 34 -1 30.3
17:55 1012 29.88 841 24.83 14.5 58.1 34 -1.1 30
18:00 1012 29.88 841 24.83 14.5 58.1 36 -0.2 31.7
18:05 1012 29.88 841 24.83 14.2 57.6 36 -0.6 30.9
18:10 1012 29.88 841 24.83 14 57.1 37 -0.3 31.4
18:15 1012 29.88 841 24.83 13.9 56.9 37 -0.6 31
18:20 1012 29.88 841 24.83 13.6 56.4 36 -1.1 30.1
18:25 1012 29.88 841 24.83 13.2 55.7 38 -0.7 30.7
18:30 1012 29.88 841 24.83 13.3 55.9 37 -1.2 29.9
18:35 1012 29.88 841 24.83 12.9 55.3 37 -1.4 29.4
18:40 1012 29.88 841 24.83 12.8 55.1 37 -1.3 29.7
18:45 1012 29.88 841 24.83 12.1 53.9 40 -0.9 30.3
18:50 1012 29.88 841 24.83 11.9 53.4 39 -1.5 29.3
18:55 1012 29.88 841 24.83 12 53.5 38 -1.9 28.5
19:00 1012 29.88 841 24.83 12.3 54.1 36 -2.3 27.9
19:05 1012 29.88 841 24.83 12.6 54.6 37 -1.8 28.7
19:10 1012 29.88 841 24.83 12.7 54.8 37 -1.7 29
19:15 1012 29.88 841 24.83 12.6 54.6 36 -1.9 28.6
19:20 1012 29.88 841 24.83 12.7 54.8 36 -1.8 28.8
19:25 1012 29.88 841 24.83 12.6 54.8 37 -1.7 29
19:30 1012 29.88 841 24.83 12.5 54.6 37 -1.9 28.6
19:35 1012 29.88 841 24.83 12.4 54.3 37 -1.7 28.9
19:40 1012 29.88 841 24.83 12.3 54.2 38 -1.7 29
19:45 1012 29.88 841 24.83 12.3 54.2 38 -1.7 28.9
19:50 1012 29.88 841 24.83 12.2 54 38 -1.7 29
19:55 1012 29.88 841 24.83 12.2 53.9 38 -1.7 29
20:00 1012 29.88 841 24.83 12.2 53.9 39 -1.5 29.4
20:05 1012 29.88 841 24.83 12.1 53.7 39 -1.4 29.4
20:10 1012 29.88 841 24.83 12.1 53.7 39 -1.3 29.6
20:15 1012 29.88 841 24.83 11.9 53.5 41 -1 30.2
20:20 1012 29.88 841 24.83 11.7 53 42 -0.8 30.5
20:25 1012 29.88 841 24.83 11.5 52.7 43 -0.5 31.2
20:30 1012 29.88 841 24.83 11.1 51.9 51 1.4 34.4
20:35 1012 29.88 842 24.86 10.4 50.7 53 1.3 34.3
20:40 1012 29.88 841 24.83 10.3 50.6 55 1.8 35.2
20:45 1012 29.88 842 24.86 9.9 49.9 56 1.5 34.8
20:50 1012 29.88 842 24.86 9.4 48.8 59 1.7 35.1
20:55 1012 29.88 842 24.86 9.4 48.9 54 0.7 33.3
21:00 1012 29.88 842 24.86 9.4 48.8 56 1.1 34.1
21:05 1012 29.88 842 24.86 9.7 49.4 54 0.8 33.5
21:10 1012 29.88 842 24.86 10.1 50.1 52 0.6 33
21:15 1013 29.91 842 24.86 9.8 49.7 54 0.9 33.7
21:20 1013 29.91 842 24.86 9.7 49.4 53 0.7 33.2
21:25 1013 29.91 842 24.86 9.6 49.3 53 0.6 33.1
21:30 1013 29.91 842 24.86 9.3 48.8 55 0.7 33.3
21:35 1013 29.91 842 24.86 9 48.2 58 1.2 34.1
21:40 1014 29.94 843 24.89 9 48.1 58 1.1 33.9
21:45 1014 29.94 843 24.89 9.5 49 60 2.1 35.7
21:50 1014 29.94 843 24.89 9 48.1 68 3.4 38.2
21:55 1014 29.94 843 24.89 8.3 46.9 72 3.5 38.3
22:00 1014 29.94 843 24.89 7.9 46.3 71 3.1 37.6
22:05 1014 29.94 843 24.89 7.7 45.9 72 3.1 37.6
22:10 1014 29.94 843 24.89 7.6 45.6 73 3 37.5
22:15 1014 29.94 843 24.89 7.5 45.5 71 2.6 36.7
22:20 1014 29.94 844 24.92 7.4 45.4 71 2.6 36.7
22:25 1015 29.97 844 24.92 7.4 45.3 73 2.9 37.2
22:30 1015 29.97 844 24.92 7.4 45.3 74 3 37.4
22:35 1015 29.97 844 24.92 7.4 45.2 74 3 37.3
22:40 1015 29.97 844 24.92 7.4 45.3 76 3.4 38.1
22:45 1015 29.97 844 24.92 7.3 45.1 78 3.6 38.6
22:50 1015 29.97 844 24.92 7.2 44.9 77 3.4 38.1
22:55 1015 29.97 844 24.92 7 44.7 77 3.3 38
23:00 1015 29.97 844 24.92 7 44.5 79 3.6 38.4
23:05 1015 29.97 844 24.92 7 44.6 79 3.6 38.4
23:10 1015 29.97 844 24.92 7 44.6 78 3.4 38.1
23:15 1015 29.97 844 24.92 7.1 44.7 76 3.1 37.6
23:20 1015 29.97 844 24.92 7.1 44.7 75 3 37.4
23:25 1015 29.97 845 24.95 7 44.6 75 2.9 37.2
23:30 1016 30 845 24.95 7 44.6 76 3.1 37.6
23:35 1016 30 845 24.95 7.1 44.8 76 3.1 37.6
23:40 1016 30 845 24.95 6.9 44.5 78 3.4 38.1
23:45 1016 30 845 24.95 6.6 43.9 83 3.9 39.1
23:50 1016 30 845 24.95 6.2 43.1 85 3.8 38.9
23:55 1016 30 845 24.95 5.9 42.6 86 3.7 38.6
24:00 1016 30 845 24.95 5.7 42.3 86 3.7 38.6